createdAt,value
2023-04-07T00:01:33.237Z,11.02
2023-04-07T00:04:00.296Z,10.99
2023-04-07T00:06:27.476Z,10.97
2023-04-07T00:08:54.348Z,10.93
2023-04-07T00:11:21.097Z,10.91
2023-04-07T00:13:47.831Z,10.87
2023-04-07T00:16:14.644Z,10.83
2023-04-07T00:18:41.679Z,10.81
2023-04-07T00:21:08.592Z,10.76
2023-04-07T00:23:36.048Z,10.72
2023-04-07T00:26:02.844Z,10.70
2023-04-07T00:28:29.591Z,10.68
2023-04-07T00:30:56.426Z,10.64
2023-04-07T00:33:23.208Z,10.60
2023-04-07T00:35:50.009Z,10.57
2023-04-07T00:38:17.056Z,10.53
2023-04-07T00:40:43.816Z,10.51
2023-04-07T00:43:10.668Z,10.48
2023-04-07T00:45:37.962Z,10.45
2023-04-07T00:48:05.685Z,10.42
2023-04-07T00:50:32.644Z,10.37
2023-04-07T00:52:59.471Z,10.37
2023-04-07T00:55:26.217Z,10.31
2023-04-07T00:57:53.007Z,10.27
2023-04-07T01:00:19.931Z,10.24
2023-04-07T01:03:10.907Z,10.20
2023-04-07T01:05:53.365Z,10.17
2023-04-07T01:08:50.377Z,10.09
2023-04-07T01:11:48.271Z,10.05
2023-04-07T01:14:17.318Z,10.01
2023-04-07T01:16:49.716Z,9.98
2023-04-07T01:19:30.143Z,9.94
2023-04-07T01:21:59.021Z,9.89
2023-04-07T01:25:03.825Z,9.85
2023-04-07T01:27:43.954Z,9.80
2023-04-07T01:30:13.120Z,9.77
2023-04-07T01:32:45.692Z,9.76
2023-04-07T01:35:13.834Z,9.73
2023-04-07T01:37:41.559Z,9.69
2023-04-07T01:40:09.332Z,9.68
2023-04-07T01:42:38.439Z,9.66
2023-04-07T01:45:07.219Z,9.63
2023-04-07T01:47:37.410Z,9.61
2023-04-07T01:50:05.754Z,9.60
2023-04-07T01:52:35.125Z,9.58
2023-04-07T01:55:03.905Z,9.56
2023-04-07T01:57:30.831Z,9.53
2023-04-07T01:59:57.613Z,9.52
2023-04-07T02:02:24.649Z,9.51
2023-04-07T02:05:03.233Z,9.47
2023-04-07T02:07:41.172Z,9.44
2023-04-07T02:10:13.628Z,9.43
2023-04-07T02:12:41.745Z,9.39
2023-04-07T02:15:13.481Z,9.39
2023-04-07T02:17:49.085Z,9.37
2023-04-07T02:20:17.795Z,9.34
2023-04-07T02:22:44.919Z,9.31
2023-04-07T02:25:29.076Z,9.30
2023-04-07T02:27:58.075Z,9.25
2023-04-07T02:30:25.976Z,9.25
2023-04-07T02:32:53.295Z,9.23
2023-04-07T02:35:20.419Z,9.21
2023-04-07T02:37:47.649Z,9.20
2023-04-07T02:40:15.690Z,9.17
2023-04-07T02:42:42.911Z,9.16
2023-04-07T02:45:10.916Z,9.13
2023-04-07T02:47:38.794Z,9.09
2023-04-07T02:50:06.506Z,9.08
2023-04-07T02:52:33.265Z,9.05
2023-04-07T02:55:00.951Z,9.04
2023-04-07T02:57:27.728Z,9.01
2023-04-07T02:59:56.041Z,8.99
2023-04-07T03:02:22.999Z,8.96
2023-04-07T03:04:52.742Z,8.94
2023-04-07T03:07:19.597Z,8.91
2023-04-07T03:09:46.536Z,8.88
2023-04-07T03:12:13.298Z,8.87
2023-04-07T03:14:40.074Z,8.83
2023-04-07T03:17:06.987Z,8.82
2023-04-07T03:19:33.824Z,8.79
2023-04-07T03:22:00.657Z,8.77
2023-04-07T03:24:27.419Z,8.74
2023-04-07T03:26:54.157Z,8.72
2023-04-07T03:29:20.962Z,8.71
2023-04-07T03:31:47.748Z,8.69
2023-04-07T03:34:14.491Z,8.69
2023-04-07T03:36:41.246Z,8.67
2023-04-07T03:39:08.010Z,8.65
2023-04-07T03:41:34.887Z,8.63
2023-04-07T03:44:01.660Z,8.63
2023-04-07T03:46:28.584Z,8.61
2023-04-07T03:48:55.397Z,8.60
2023-04-07T03:51:22.388Z,8.59
2023-04-07T03:53:49.189Z,8.57
2023-04-07T03:56:16.142Z,8.55
2023-04-07T03:58:42.930Z,8.52
2023-04-07T04:01:09.742Z,8.52
2023-04-07T04:03:36.697Z,8.49
2023-04-07T04:06:03.721Z,8.48
2023-04-07T04:08:30.997Z,8.47
2023-04-07T04:10:57.775Z,8.45
2023-04-07T04:13:24.541Z,8.44
2023-04-07T04:15:52.168Z,8.42
2023-04-07T04:18:18.954Z,8.40
2023-04-07T04:20:45.718Z,8.38
2023-04-07T04:23:12.495Z,8.36
2023-04-07T04:25:41.815Z,8.35
2023-04-07T04:28:08.555Z,8.32
2023-04-07T04:30:35.379Z,8.30
2023-04-07T04:33:02.999Z,8.28
2023-04-07T04:35:29.883Z,8.26
2023-04-07T04:37:56.692Z,8.24
2023-04-07T04:40:23.444Z,8.22
2023-04-07T04:42:50.455Z,8.19
2023-04-07T04:45:17.326Z,8.17
2023-04-07T04:47:44.284Z,8.15
2023-04-07T04:50:11.191Z,8.12
2023-04-07T04:52:39.103Z,8.10
2023-04-07T04:55:06.668Z,8.08
2023-04-07T04:57:35.955Z,8.06
2023-04-07T05:00:04.321Z,8.05
2023-04-07T05:02:31.396Z,8.03
2023-04-07T05:04:58.427Z,8.02
2023-04-07T05:07:25.394Z,8.02
2023-04-07T05:09:52.136Z,8.02
2023-04-07T05:12:18.886Z,8.04
2023-04-07T05:14:45.681Z,8.07
2023-04-07T05:17:12.475Z,8.12
2023-04-07T05:19:39.350Z,8.17
2023-04-07T05:22:06.181Z,8.22
2023-04-07T05:24:32.928Z,8.25
2023-04-07T05:26:59.704Z,8.27
2023-04-07T05:29:26.446Z,8.34
2023-04-07T05:31:53.263Z,8.44
2023-04-07T05:34:20.064Z,8.50
2023-04-07T05:36:46.827Z,8.59
2023-04-07T05:39:13.574Z,8.68
2023-04-07T05:41:40.419Z,8.81
2023-04-07T05:44:07.183Z,8.94
2023-04-07T05:46:33.970Z,9.11
2023-04-07T05:49:16.689Z,9.27
2023-04-07T05:51:47.510Z,9.48
2023-04-07T05:54:15.588Z,9.73
2023-04-07T05:56:42.402Z,10.00
2023-04-07T05:59:09.210Z,10.23
2023-04-07T06:01:36.004Z,10.46
2023-04-07T06:04:03.569Z,10.65
2023-04-07T06:06:31.325Z,10.82
2023-04-07T06:08:58.168Z,11.02
2023-04-07T06:11:27.211Z,11.22
2023-04-07T06:13:53.949Z,11.45
2023-04-07T06:16:20.761Z,11.73
2023-04-07T06:18:47.633Z,11.97
2023-04-07T06:21:14.435Z,12.17
2023-04-07T06:23:41.190Z,12.39
2023-04-07T06:26:11.913Z,12.59
2023-04-07T06:28:39.528Z,12.70
2023-04-07T06:31:07.131Z,12.80
2023-04-07T06:33:33.972Z,12.81
2023-04-07T06:36:00.853Z,12.78
2023-04-07T06:38:27.663Z,12.71
2023-04-07T06:40:54.482Z,12.60
2023-04-07T06:43:21.326Z,12.60
2023-04-07T06:45:48.179Z,12.57
2023-04-07T06:48:15.435Z,12.50
2023-04-07T06:50:42.627Z,12.49
2023-04-07T06:53:09.394Z,12.58
2023-04-07T06:55:36.320Z,12.62
2023-04-07T06:58:03.106Z,12.64
2023-04-07T07:00:30.972Z,12.63
2023-04-07T07:02:58.156Z,12.77
2023-04-07T07:05:25.478Z,13.03
2023-04-07T07:07:52.218Z,13.24
2023-04-07T07:10:20.503Z,13.44
2023-04-07T07:12:47.291Z,13.61
2023-04-07T07:15:14.105Z,13.81
2023-04-07T07:17:41.417Z,13.96
2023-04-07T07:20:09.236Z,14.20
2023-04-07T07:22:36.232Z,14.56
2023-04-07T07:25:03.381Z,14.84
2023-04-07T07:27:30.227Z,15.12
2023-04-07T07:29:57.002Z,15.49
2023-04-07T07:32:23.817Z,15.81
2023-04-07T07:34:50.769Z,15.97
2023-04-07T07:37:17.547Z,15.95
2023-04-07T07:39:44.300Z,16.03
2023-04-07T07:42:11.108Z,16.16
2023-04-07T07:44:37.868Z,16.28
2023-04-07T07:47:04.711Z,16.38
2023-04-07T07:49:31.989Z,16.43
2023-04-07T07:51:59.683Z,16.59
2023-04-07T07:54:26.498Z,16.69
2023-04-07T07:56:54.301Z,16.90
2023-04-07T07:59:21.453Z,17.11
2023-04-07T08:01:48.255Z,17.25
2023-04-07T08:04:15.380Z,17.36
2023-04-07T08:06:42.771Z,17.46
2023-04-07T08:09:09.578Z,17.45
2023-04-07T08:11:36.601Z,17.35
2023-04-07T08:14:03.381Z,17.30
2023-04-07T08:16:30.525Z,17.24
2023-04-07T08:18:57.315Z,17.18
2023-04-07T08:21:24.077Z,17.12
2023-04-07T08:23:51.099Z,16.98
2023-04-07T08:26:18.052Z,16.80
2023-04-07T08:28:44.793Z,16.67
2023-04-07T08:31:11.643Z,16.53
2023-04-07T08:33:38.409Z,16.40
2023-04-07T08:36:05.762Z,16.31
2023-04-07T08:38:32.644Z,16.27
2023-04-07T08:41:07.211Z,16.24
2023-04-07T08:43:36.887Z,16.22
2023-04-07T08:46:04.079Z,16.24
2023-04-07T08:48:34.058Z,16.22
2023-04-07T08:51:06.262Z,16.22
2023-04-07T08:53:43.218Z,16.23
2023-04-07T08:56:12.904Z,16.23
2023-04-07T08:58:40.227Z,16.24
2023-04-07T09:01:09.341Z,16.26
2023-04-07T09:03:36.585Z,16.28
2023-04-07T09:06:03.944Z,16.29
2023-04-07T09:08:30.754Z,16.30
2023-04-07T09:10:58.105Z,16.30
2023-04-07T09:13:25.588Z,16.26
2023-04-07T09:15:52.402Z,16.21
2023-04-07T09:18:19.793Z,16.16
2023-04-07T09:20:59.554Z,16.15
2023-04-07T09:23:38.744Z,16.13
2023-04-07T09:26:27.067Z,16.16
2023-04-07T09:29:03.001Z,16.19
2023-04-07T09:31:48.339Z,16.22
2023-04-07T09:34:31.443Z,16.22
2023-04-07T09:36:59.136Z,16.20
2023-04-07T09:39:26.309Z,16.23
2023-04-07T09:41:53.405Z,16.25
2023-04-07T09:44:22.029Z,16.29
2023-04-07T09:46:54.445Z,16.33
2023-04-07T09:49:21.550Z,16.39
2023-04-07T09:52:00.647Z,16.41
2023-04-07T09:54:38.981Z,16.38
2023-04-07T09:57:09.287Z,16.31
2023-04-07T09:59:44.604Z,16.33
2023-04-07T10:02:12.468Z,16.31
2023-04-07T10:04:40.431Z,16.34
2023-04-07T10:07:07.414Z,16.36
2023-04-07T10:09:34.285Z,16.39
2023-04-07T10:12:01.111Z,16.41
2023-04-07T10:14:32.009Z,16.46
2023-04-07T10:17:04.474Z,16.53
2023-04-07T10:19:36.124Z,16.59
2023-04-07T10:22:05.413Z,16.62
2023-04-07T10:25:12.182Z,16.64
2023-04-07T10:27:50.663Z,16.68
2023-04-07T10:30:25.595Z,16.68
2023-04-07T10:32:54.390Z,16.66
2023-04-07T10:35:21.951Z,16.67
2023-04-07T10:38:07.434Z,16.69
2023-04-07T10:40:35.823Z,16.70
2023-04-07T10:43:02.990Z,16.71
2023-04-07T10:45:54.449Z,16.78
2023-04-07T10:48:21.829Z,16.79
2023-04-07T10:51:07.980Z,16.82
2023-04-07T10:53:35.069Z,16.87
2023-04-07T10:56:02.256Z,16.93
2023-04-07T10:58:33.388Z,16.95
2023-04-07T11:01:00.443Z,16.98
2023-04-07T11:03:30.381Z,16.97
2023-04-07T11:06:11.826Z,16.97
2023-04-07T11:08:44.058Z,16.94
2023-04-07T11:11:14.895Z,16.96
2023-04-07T11:13:50.894Z,16.99
2023-04-07T11:16:20.696Z,17.01
2023-04-07T11:18:47.931Z,17.05
2023-04-07T11:21:19.596Z,17.04
2023-04-07T11:23:48.442Z,17.06
2023-04-07T11:26:15.975Z,17.13
2023-04-07T11:28:52.731Z,17.15
2023-04-07T11:31:24.940Z,17.20
2023-04-07T11:33:59.925Z,17.21
2023-04-07T11:36:39.798Z,17.22
2023-04-07T11:39:18.381Z,17.24
2023-04-07T11:41:50.200Z,17.27
2023-04-07T11:44:17.237Z,17.32
2023-04-07T11:47:04.890Z,17.36
2023-04-07T11:49:32.350Z,17.37
2023-04-07T11:52:06.666Z,17.41
2023-04-07T11:54:47.285Z,17.45
2023-04-07T11:57:14.805Z,17.45
2023-04-07T11:59:42.093Z,17.44
2023-04-07T12:02:09.515Z,17.45
2023-04-07T12:04:39.720Z,17.48
2023-04-07T12:07:11.706Z,17.53
2023-04-07T12:09:40.254Z,17.60
2023-04-07T12:12:08.520Z,17.65
2023-04-07T12:14:36.019Z,17.72
2023-04-07T12:17:03.846Z,17.80
2023-04-07T12:19:35.876Z,17.88
2023-04-07T12:22:04.301Z,17.95
2023-04-07T12:24:32.407Z,18.00
2023-04-07T12:26:59.508Z,18.04
2023-04-07T12:29:26.333Z,18.07
2023-04-07T12:31:53.130Z,18.09
2023-04-07T12:34:19.968Z,18.11
2023-04-07T12:36:46.806Z,18.13
2023-04-07T12:39:13.631Z,18.11
2023-04-07T12:41:40.382Z,18.10
2023-04-07T12:44:07.382Z,18.12
2023-04-07T12:46:34.237Z,18.14
2023-04-07T12:49:01.275Z,18.16
2023-04-07T12:51:28.425Z,18.17
2023-04-07T12:53:55.217Z,18.19
2023-04-07T12:56:22.320Z,18.24
2023-04-07T12:58:49.111Z,18.27
2023-04-07T13:01:16.622Z,18.32
2023-04-07T13:03:43.927Z,18.40
2023-04-07T13:06:11.524Z,18.46
2023-04-07T13:08:39.355Z,18.47
2023-04-07T13:11:06.626Z,18.48
2023-04-07T13:13:34.045Z,18.51
2023-04-07T13:16:01.188Z,18.57
2023-04-07T13:18:27.969Z,18.62
2023-04-07T13:21:26.395Z,18.68
2023-04-07T13:23:43.958Z,18.75
2023-04-07T13:26:11.335Z,18.79
2023-04-07T13:28:38.703Z,18.76
2023-04-07T13:31:05.530Z,18.74
2023-04-07T13:33:32.287Z,18.74
2023-04-07T13:35:59.096Z,18.73
2023-04-07T13:38:26.305Z,18.76
2023-04-07T13:40:53.088Z,18.81
2023-04-07T13:43:20.116Z,18.83
2023-04-07T13:45:48.454Z,18.84
2023-04-07T13:48:15.750Z,18.85
2023-04-07T13:50:42.546Z,18.85
2023-04-07T13:53:09.310Z,18.87
2023-04-07T13:55:36.666Z,18.87
2023-04-07T13:58:03.486Z,18.86
2023-04-07T14:00:30.532Z,18.85
2023-04-07T14:02:57.414Z,18.86
2023-04-07T14:05:24.697Z,18.86
2023-04-07T14:07:51.496Z,18.86
2023-04-07T14:10:18.417Z,18.88
2023-04-07T14:12:45.196Z,18.92
2023-04-07T14:15:12.012Z,18.95
2023-04-07T14:17:38.879Z,18.98
2023-04-07T14:20:06.539Z,18.99
2023-04-07T14:22:33.326Z,18.97
2023-04-07T14:25:00.429Z,18.97
2023-04-07T14:27:31.128Z,19.01
2023-04-07T14:29:59.404Z,19.02
2023-04-07T14:32:29.394Z,18.99
2023-04-07T14:34:56.609Z,18.96
2023-04-07T14:37:26.231Z,18.92
2023-04-07T14:40:02.674Z,18.88
2023-04-07T14:42:30.824Z,18.82
2023-04-07T14:44:59.036Z,18.76
2023-04-07T14:47:26.350Z,18.73
2023-04-07T14:49:53.741Z,18.74
2023-04-07T14:52:22.211Z,18.74
2023-04-07T14:54:49.510Z,18.73
2023-04-07T14:57:16.938Z,18.71
2023-04-07T14:59:44.091Z,18.72
2023-04-07T15:02:11.114Z,18.73
2023-04-07T15:04:38.466Z,18.75
2023-04-07T15:07:05.390Z,18.77
2023-04-07T15:09:32.195Z,18.81
2023-04-07T15:12:00.340Z,18.81
2023-04-07T15:14:27.162Z,18.83
2023-04-07T15:16:54.004Z,18.84
2023-04-07T15:19:20.766Z,18.85
2023-04-07T15:21:47.547Z,18.83
2023-04-07T15:24:16.291Z,18.77
2023-04-07T15:26:43.442Z,18.73
2023-04-07T15:29:10.298Z,18.68
2023-04-07T15:31:37.107Z,18.64
2023-04-07T15:34:03.957Z,18.64
2023-04-07T15:36:31.402Z,18.61
2023-04-07T15:39:03.925Z,18.60
2023-04-07T15:41:30.766Z,18.54
2023-04-07T15:44:00.306Z,18.49
2023-04-07T15:46:27.506Z,18.44
2023-04-07T15:48:54.290Z,18.41
2023-04-07T15:51:21.126Z,18.38
2023-04-07T15:53:48.184Z,18.32
2023-04-07T15:56:15.274Z,18.30
2023-04-07T15:58:42.049Z,18.27
2023-04-07T16:01:09.080Z,18.27
2023-04-07T16:03:35.998Z,18.27
2023-04-07T16:06:02.880Z,18.22
2023-04-07T16:08:29.630Z,18.19
2023-04-07T16:10:56.393Z,18.16
2023-04-07T16:13:23.197Z,18.13
2023-04-07T16:15:49.973Z,18.11
2023-04-07T16:18:16.960Z,18.08
2023-04-07T16:20:43.733Z,18.05
2023-04-07T16:23:10.682Z,18.01
2023-04-07T16:25:37.483Z,17.98
2023-04-07T16:28:04.247Z,17.94
2023-04-07T16:30:31.109Z,17.88
2023-04-07T16:33:00.049Z,17.83
2023-04-07T16:35:26.927Z,17.80
2023-04-07T16:37:54.805Z,17.73
2023-04-07T16:40:21.592Z,17.68
2023-04-07T16:42:48.368Z,17.64
2023-04-07T16:45:15.177Z,17.58
2023-04-07T16:47:44.702Z,17.53
2023-04-07T16:50:11.967Z,17.48
2023-04-07T16:52:38.760Z,17.45
2023-04-07T16:55:06.098Z,17.39
2023-04-07T16:57:32.897Z,17.36
2023-04-07T16:59:59.757Z,17.31
2023-04-07T17:02:27.582Z,17.25
2023-04-07T17:04:54.613Z,17.19
2023-04-07T17:07:21.377Z,17.12
2023-04-07T17:09:48.139Z,17.06
2023-04-07T17:12:14.986Z,16.99
2023-04-07T17:14:41.739Z,16.92
2023-04-07T17:17:08.487Z,16.87
2023-04-07T17:19:35.648Z,16.79
2023-04-07T17:22:02.477Z,16.72
2023-04-07T17:24:29.229Z,16.62
2023-04-07T17:26:55.963Z,16.50
2023-04-07T17:29:28.668Z,16.40
2023-04-07T17:31:58.546Z,16.30
2023-04-07T17:34:25.683Z,16.20
2023-04-07T17:36:52.468Z,16.11
2023-04-07T17:39:19.300Z,16.00
2023-04-07T17:41:47.519Z,15.92
2023-04-07T17:44:14.364Z,15.82
2023-04-07T17:46:41.248Z,15.69
2023-04-07T17:49:08.079Z,15.61
2023-04-07T17:51:34.842Z,15.52
2023-04-07T17:54:01.768Z,15.45
2023-04-07T17:56:28.671Z,15.38
2023-04-07T17:58:55.630Z,15.30
2023-04-07T18:01:22.499Z,15.21
2023-04-07T18:03:49.735Z,15.14
2023-04-07T18:06:17.747Z,15.08
2023-04-07T18:08:48.171Z,15.02
2023-04-07T18:11:16.066Z,14.95
2023-04-07T18:13:42.952Z,14.88
2023-04-07T18:16:11.723Z,14.83
2023-04-07T18:18:38.722Z,14.77
2023-04-07T18:21:08.761Z,14.74
2023-04-07T18:23:36.695Z,14.68
2023-04-07T18:26:06.749Z,14.64
2023-04-07T18:28:34.631Z,14.62
2023-04-07T18:31:07.517Z,14.59
2023-04-07T18:33:36.123Z,14.56
2023-04-07T18:36:06.947Z,14.54
2023-04-07T18:38:35.340Z,14.48
2023-04-07T18:41:02.275Z,14.45
2023-04-07T18:43:29.906Z,14.41
2023-04-07T18:45:56.843Z,14.36
2023-04-07T18:48:23.634Z,14.33
2023-04-07T18:50:55.374Z,14.29
2023-04-07T18:53:23.816Z,14.23
2023-04-07T18:55:51.294Z,14.19
2023-04-07T18:58:19.172Z,14.14
2023-04-07T19:00:47.324Z,14.07
2023-04-07T19:03:14.347Z,14.00
2023-04-07T19:05:42.014Z,13.93
2023-04-07T19:08:09.112Z,13.86
2023-04-07T19:10:35.936Z,13.80
2023-04-07T19:13:03.425Z,13.76
2023-04-07T19:15:38.203Z,13.70
2023-04-07T19:18:05.200Z,13.67
2023-04-07T19:20:33.511Z,13.64
2023-04-07T19:23:01.450Z,13.65
2023-04-07T19:25:28.292Z,13.63
2023-04-07T19:27:55.085Z,13.62
2023-04-07T19:30:21.887Z,13.61
2023-04-07T19:32:48.833Z,13.61
2023-04-07T19:35:16.614Z,13.61
2023-04-07T19:37:43.382Z,13.59
2023-04-07T19:40:10.895Z,13.56
2023-04-07T19:42:39.332Z,13.54
2023-04-07T19:45:08.158Z,13.53
2023-04-07T19:47:35.917Z,13.48
2023-04-07T19:50:04.113Z,13.47
2023-04-07T19:52:34.205Z,13.42
2023-04-07T19:55:03.667Z,13.39
2023-04-07T19:57:31.489Z,13.37
2023-04-07T19:59:58.277Z,13.35
2023-04-07T20:02:25.235Z,13.29
2023-04-07T20:04:53.067Z,13.23
2023-04-07T20:07:19.920Z,13.19
2023-04-07T20:09:46.824Z,13.12
2023-04-07T20:12:14.785Z,13.10
2023-04-07T20:14:41.617Z,13.06
2023-04-07T20:17:08.565Z,13.02
2023-04-07T20:19:35.401Z,13.01
2023-04-07T20:22:02.168Z,12.99
2023-04-07T20:24:28.930Z,12.99
2023-04-07T20:26:55.871Z,12.96
2023-04-07T20:29:22.614Z,12.93
2023-04-07T20:31:49.724Z,12.93
2023-04-07T20:34:16.561Z,12.92
2023-04-07T20:36:43.467Z,12.94
2023-04-07T20:39:10.269Z,12.91
2023-04-07T20:41:37.456Z,12.88
2023-04-07T20:44:04.344Z,12.86
2023-04-07T20:46:33.318Z,12.86
2023-04-07T20:49:00.201Z,12.84
2023-04-07T20:51:27.194Z,12.83
2023-04-07T20:53:53.992Z,12.84
2023-04-07T20:56:21.595Z,12.81
2023-04-07T20:58:48.681Z,12.81
2023-04-07T21:01:15.661Z,12.80
2023-04-07T21:03:42.904Z,12.78
2023-04-07T21:06:09.719Z,12.75
2023-04-07T21:08:36.474Z,12.74
2023-04-07T21:11:03.269Z,12.71
2023-04-07T21:13:30.267Z,12.70
2023-04-07T21:15:59.105Z,12.64
2023-04-07T21:18:27.136Z,12.62
2023-04-07T21:20:57.523Z,12.63
2023-04-07T21:23:24.366Z,12.61
2023-04-07T21:25:51.291Z,12.59
2023-04-07T21:28:18.058Z,12.60
2023-04-07T21:30:44.856Z,12.59
2023-04-07T21:33:13.412Z,12.60
2023-04-07T21:35:40.345Z,12.60
2023-04-07T21:38:07.133Z,12.60
2023-04-07T21:40:33.907Z,12.57
2023-04-07T21:43:00.712Z,12.58
2023-04-07T21:45:27.895Z,12.57
2023-04-07T21:47:54.642Z,12.57
2023-04-07T21:50:21.436Z,12.57
2023-04-07T21:52:50.670Z,12.55
2023-04-07T21:55:21.457Z,12.54
2023-04-07T21:57:49.982Z,12.53
2023-04-07T22:00:16.905Z,12.50
2023-04-07T22:02:43.988Z,12.51
2023-04-07T22:05:11.208Z,12.50
2023-04-07T22:07:37.986Z,12.50
2023-04-07T22:10:05.573Z,12.51
2023-04-07T22:12:32.309Z,12.50
2023-04-07T22:14:59.089Z,12.49
2023-04-07T22:17:25.946Z,12.47
2023-04-07T22:19:52.776Z,12.45
2023-04-07T22:22:19.604Z,12.41
2023-04-07T22:24:46.346Z,12.38
2023-04-07T22:27:13.137Z,12.36
2023-04-07T22:29:39.896Z,12.36
2023-04-07T22:32:06.759Z,12.35
2023-04-07T22:34:33.552Z,12.37
2023-04-07T22:37:00.484Z,12.37
2023-04-07T22:39:27.237Z,12.37
2023-04-07T22:41:54.029Z,12.37
2023-04-07T22:44:20.788Z,12.35
2023-04-07T22:46:47.779Z,12.34
2023-04-07T22:49:14.612Z,12.32
2023-04-07T22:51:41.358Z,12.31
2023-04-07T22:54:08.131Z,12.30
2023-04-07T22:56:34.896Z,12.29
2023-04-07T22:59:05.908Z,12.28
2023-04-07T23:01:33.022Z,12.26
2023-04-07T23:04:00.004Z,12.22
2023-04-07T23:06:28.669Z,12.22
2023-04-07T23:08:55.953Z,12.21
2023-04-07T23:11:22.807Z,12.20
2023-04-07T23:13:49.630Z,12.17
2023-04-07T23:16:16.461Z,12.16
2023-04-07T23:18:43.395Z,12.18
2023-04-07T23:21:10.990Z,12.18
2023-04-07T23:23:38.961Z,12.17
2023-04-07T23:26:06.744Z,12.19
2023-04-07T23:28:33.560Z,12.18
2023-04-07T23:31:01.474Z,12.18
2023-04-07T23:33:30.421Z,12.18
2023-04-07T23:35:57.225Z,12.17
2023-04-07T23:38:24.651Z,12.15
2023-04-07T23:40:51.402Z,12.15
2023-04-07T23:43:18.154Z,12.16
2023-04-07T23:45:44.998Z,12.16
2023-04-07T23:48:11.761Z,12.14
2023-04-07T23:50:38.903Z,12.12
2023-04-07T23:53:06.216Z,12.16
2023-04-07T23:55:33.113Z,12.17
2023-04-07T23:57:59.871Z,12.19
